createdAt,value
2018-11-04T00:01:16.369Z,1.40
2018-11-04T00:03:43.460Z,1.50
2018-11-04T00:06:10.537Z,1.50
2018-11-04T00:08:40.445Z,1.40
2018-11-04T00:11:07.533Z,1.40
2018-11-04T00:13:34.650Z,1.40
2018-11-04T00:16:04.821Z,1.30
2018-11-04T00:18:31.831Z,1.30
2018-11-04T00:20:59.822Z,1.20
2018-11-04T00:23:26.954Z,1.20
2018-11-04T00:25:54.072Z,1.20
2018-11-04T00:28:21.262Z,1.20
2018-11-04T00:30:48.264Z,1.20
2018-11-04T00:33:15.228Z,1.20
2018-11-04T00:35:42.332Z,1.20
2018-11-04T00:38:09.293Z,1.10
2018-11-04T00:40:36.296Z,1.10
2018-11-04T00:43:03.293Z,1.10
2018-11-04T00:45:30.444Z,1.00
2018-11-04T00:47:57.481Z,1.00
2018-11-04T00:50:24.488Z,1.00
2018-11-04T00:52:55.500Z,1.00
2018-11-04T00:55:22.623Z,1.10
2018-11-04T00:57:49.660Z,1.10
2018-11-04T01:00:21.021Z,1.10
2018-11-04T01:02:49.199Z,1.00
2018-11-04T01:05:16.987Z,1.00
2018-11-04T01:07:44.096Z,1.00
2018-11-04T01:10:11.838Z,1.00
2018-11-04T01:12:39.085Z,0.90
2018-11-04T01:15:06.556Z,0.90
2018-11-04T01:17:33.513Z,0.90
2018-11-04T01:20:00.477Z,0.90
2018-11-04T01:22:27.523Z,0.90
2018-11-04T01:24:54.474Z,0.90
2018-11-04T01:27:21.857Z,0.90
2018-11-04T01:29:48.845Z,0.90
2018-11-04T01:32:15.833Z,0.80
2018-11-04T01:34:42.785Z,0.90
2018-11-04T01:37:09.796Z,0.90
2018-11-04T01:39:36.752Z,0.80
2018-11-04T01:42:04.097Z,0.80
2018-11-04T01:44:31.167Z,0.80
2018-11-04T01:46:58.125Z,0.70
2018-11-04T01:49:25.085Z,0.70
2018-11-04T01:51:52.080Z,0.70
2018-11-04T01:54:19.057Z,0.70
2018-11-04T01:56:46.080Z,0.70
2018-11-04T01:59:13.212Z,0.70
2018-11-04T02:01:40.197Z,0.70
2018-11-04T02:04:07.460Z,0.60
2018-11-04T02:06:34.571Z,0.60
2018-11-04T02:09:01.631Z,0.60
2018-11-04T02:11:28.660Z,0.60
2018-11-04T02:13:55.672Z,0.60
2018-11-04T02:16:22.767Z,0.50
2018-11-04T02:18:50.444Z,0.50
2018-11-04T02:21:17.460Z,0.50
2018-11-04T02:23:45.577Z,0.50
2018-11-04T02:26:12.628Z,0.50
2018-11-04T02:28:39.620Z,0.40
2018-11-04T02:31:06.663Z,0.40
2018-11-04T02:33:33.744Z,0.40
2018-11-04T02:36:00.794Z,0.50
2018-11-04T02:38:27.753Z,0.50
2018-11-04T02:40:55.333Z,0.50
2018-11-04T02:43:25.850Z,0.50
2018-11-04T02:45:53.177Z,0.50
2018-11-04T02:48:20.132Z,0.60
2018-11-04T02:50:47.114Z,0.60
2018-11-04T02:53:14.762Z,0.60
2018-11-04T02:55:41.742Z,0.50
2018-11-04T02:58:08.940Z,0.50
2018-11-04T03:00:35.899Z,0.50
2018-11-04T03:03:02.959Z,0.40
2018-11-04T03:05:30.029Z,0.40
2018-11-04T03:07:57.202Z,0.40
2018-11-04T03:10:24.212Z,0.40
2018-11-04T03:12:51.303Z,0.40
2018-11-04T03:15:18.333Z,0.40
2018-11-04T03:17:45.349Z,0.40
2018-11-04T03:20:12.413Z,0.40
2018-11-04T03:22:39.861Z,0.50
2018-11-04T03:25:07.055Z,0.50
2018-11-04T03:27:34.267Z,0.60
2018-11-04T03:32:34.118Z,0.90
2018-11-04T03:35:01.715Z,1.00
2018-11-04T03:37:28.809Z,1.10
2018-11-04T03:39:56.005Z,1.20
2018-11-04T03:42:22.985Z,1.30
2018-11-04T03:44:50.188Z,1.30
2018-11-04T03:47:17.294Z,1.30
2018-11-04T03:49:44.461Z,1.40
2018-11-04T03:52:11.596Z,1.30
2018-11-04T03:54:38.607Z,1.30
2018-11-04T03:57:09.816Z,1.30
2018-11-04T03:59:36.856Z,1.20
2018-11-04T04:02:04.251Z,1.10
2018-11-04T04:04:35.149Z,1.00
2018-11-04T04:07:02.184Z,0.90
2018-11-04T04:09:29.258Z,0.90
2018-11-04T04:11:56.279Z,0.80
2018-11-04T04:14:23.397Z,0.80
2018-11-04T04:16:50.415Z,0.80
2018-11-04T04:19:17.512Z,0.80
2018-11-04T04:21:44.736Z,0.80
2018-11-04T04:24:18.221Z,0.70
2018-11-04T04:26:45.249Z,0.70
2018-11-04T04:29:12.340Z,0.70
2018-11-04T04:31:42.758Z,0.70
2018-11-04T04:34:09.758Z,0.70
2018-11-04T04:36:36.788Z,0.70
2018-11-04T04:39:09.397Z,0.70
2018-11-04T04:41:36.372Z,0.80
2018-11-04T04:44:03.419Z,0.80
2018-11-04T04:46:34.112Z,0.80
2018-11-04T04:49:01.125Z,0.90
2018-11-04T04:51:28.068Z,0.90
2018-11-04T04:53:55.094Z,1.00
2018-11-04T04:56:22.056Z,1.10
2018-11-04T04:58:49.026Z,1.10
2018-11-04T05:01:16.052Z,1.20
2018-11-04T05:03:43.035Z,1.30
2018-11-04T05:06:13.676Z,1.40
2018-11-04T05:08:40.700Z,1.50
2018-11-04T05:11:07.685Z,1.60
2018-11-04T05:13:38.234Z,1.70
2018-11-04T05:16:05.325Z,1.80
2018-11-04T05:18:32.289Z,1.90
2018-11-04T05:20:59.288Z,2.00
2018-11-04T05:23:26.299Z,2.10
2018-11-04T05:25:53.293Z,2.10
2018-11-04T05:28:20.322Z,2.20
2018-11-04T05:30:47.289Z,2.20
2018-11-04T05:33:17.930Z,2.20
2018-11-04T05:35:44.972Z,2.30
2018-11-04T05:38:12.070Z,2.30
2018-11-04T05:40:38.993Z,2.40
2018-11-04T05:43:06.013Z,2.40
2018-11-04T05:45:33.033Z,2.50
2018-11-04T05:48:00.047Z,2.50
2018-11-04T05:50:27.077Z,2.50
2018-11-04T05:52:55.845Z,2.60
2018-11-04T05:55:22.872Z,2.60
2018-11-04T05:57:49.872Z,2.70
2018-11-04T06:02:50.129Z,2.80
2018-11-04T06:05:17.264Z,2.90
2018-11-04T06:07:47.877Z,2.90
2018-11-04T06:10:14.917Z,3.00
2018-11-04T06:12:41.921Z,3.00
2018-11-04T06:15:09.074Z,3.10
2018-11-04T06:17:36.157Z,3.10
2018-11-04T06:20:03.212Z,3.10
2018-11-04T06:22:30.216Z,3.20
2018-11-04T06:24:57.220Z,3.20
2018-11-04T06:27:24.228Z,3.20
2018-11-04T06:29:51.250Z,3.20
2018-11-04T06:32:18.260Z,3.30
2018-11-04T06:34:45.302Z,3.30
2018-11-04T06:37:12.321Z,3.40
2018-11-04T06:39:39.377Z,3.40
2018-11-04T06:42:06.354Z,3.50
2018-11-04T06:44:33.355Z,3.50
2018-11-04T06:47:03.644Z,3.60
2018-11-04T06:49:30.607Z,3.60
2018-11-04T06:51:57.581Z,3.70
2018-11-04T06:54:28.324Z,3.70
2018-11-04T06:56:55.434Z,3.80
2018-11-04T06:59:22.432Z,3.80
2018-11-04T07:01:49.432Z,3.90
2018-11-04T07:04:20.320Z,3.90
2018-11-04T07:06:47.709Z,3.90
2018-11-04T07:09:15.210Z,4.00
2018-11-04T07:11:42.326Z,4.00
2018-11-04T07:14:09.769Z,4.10
2018-11-04T07:16:36.842Z,4.10
2018-11-04T07:19:03.887Z,4.20
2018-11-04T07:21:38.404Z,4.20
2018-11-04T07:24:05.844Z,4.30
2018-11-04T07:26:33.138Z,4.30
2018-11-04T07:29:00.100Z,4.40
2018-11-04T07:31:27.130Z,4.40
2018-11-04T07:33:54.191Z,4.50
2018-11-04T07:36:21.336Z,4.50
2018-11-04T07:38:48.481Z,4.60
2018-11-04T07:41:15.554Z,4.60
2018-11-04T07:46:45.070Z,4.80
2018-11-04T07:49:12.096Z,4.80
2018-11-04T07:51:39.259Z,4.90
2018-11-04T07:54:06.789Z,5.00
2018-11-04T07:56:33.929Z,5.00
2018-11-04T07:59:01.098Z,5.10
2018-11-04T08:01:28.148Z,5.20
2018-11-04T08:03:55.276Z,5.30
2018-11-04T08:06:25.589Z,5.40
2018-11-04T08:08:52.574Z,5.40
2018-11-04T08:11:19.621Z,5.50
2018-11-04T08:13:50.026Z,5.60
2018-11-04T08:16:20.696Z,5.70
2018-11-04T08:18:47.693Z,5.80
2018-11-04T08:21:14.782Z,5.90
2018-11-04T08:23:41.729Z,6.00
2018-11-04T08:26:08.732Z,6.10
2018-11-04T08:28:35.735Z,6.20
2018-11-04T08:31:02.757Z,6.20
2018-11-04T08:33:29.720Z,6.30
2018-11-04T08:35:56.769Z,6.40
2018-11-04T08:38:27.413Z,6.50
2018-11-04T08:40:54.428Z,6.60
2018-11-04T08:43:21.531Z,6.60
2018-11-04T08:45:48.559Z,6.70
2018-11-04T08:48:15.635Z,6.80
2018-11-04T08:50:42.778Z,6.90
2018-11-04T08:53:09.756Z,7.00
2018-11-04T08:55:36.830Z,7.20
2018-11-04T08:58:03.885Z,7.10
2018-11-04T09:00:30.969Z,7.20
2018-11-04T09:02:58.038Z,7.20
2018-11-04T09:05:28.707Z,7.30
2018-11-04T09:07:55.733Z,7.30
2018-11-04T09:10:22.734Z,7.40
2018-11-04T09:12:53.258Z,7.40
2018-11-04T09:15:20.320Z,7.50
2018-11-04T09:17:48.461Z,7.50
2018-11-04T09:20:16.383Z,7.50
2018-11-04T09:22:43.820Z,7.50
2018-11-04T09:25:11.962Z,7.60
2018-11-04T09:27:38.986Z,7.60
2018-11-04T09:30:07.144Z,7.60
2018-11-04T09:32:34.149Z,7.60
2018-11-04T09:35:02.237Z,7.70
2018-11-04T09:37:29.893Z,7.80
2018-11-04T09:39:56.944Z,7.90
2018-11-04T09:42:23.990Z,8.00
2018-11-04T09:44:50.976Z,8.10
2018-11-04T09:47:18.036Z,8.20
2018-11-04T09:49:45.014Z,8.30
2018-11-04T09:52:12.150Z,8.40
2018-11-04T09:54:39.188Z,8.40
2018-11-04T09:57:09.458Z,8.50
2018-11-04T09:59:39.406Z,8.60
2018-11-04T10:02:06.515Z,8.70
2018-11-04T10:04:35.115Z,8.80
2018-11-04T10:07:02.318Z,9.00
2018-11-04T10:09:29.327Z,9.10
2018-11-04T10:11:56.368Z,9.20
2018-11-04T10:14:23.375Z,9.30
2018-11-04T10:16:50.425Z,9.40
2018-11-04T10:19:17.777Z,9.40
2018-11-04T10:21:44.536Z,9.50
2018-11-04T10:24:14.196Z,9.60
2018-11-04T10:26:41.213Z,9.70
2018-11-04T10:29:08.337Z,9.80
2018-11-04T10:31:35.417Z,9.90
2018-11-04T10:34:02.436Z,10.10
2018-11-04T10:36:29.433Z,10.20
2018-11-04T10:38:56.514Z,10.30
2018-11-04T10:41:23.554Z,10.40
2018-11-04T10:43:50.820Z,10.60
2018-11-04T10:46:17.818Z,10.70
2018-11-04T10:48:45.490Z,10.90
2018-11-04T10:51:13.121Z,11.10
2018-11-04T10:53:41.103Z,11.40
2018-11-04T10:56:08.138Z,11.60
2018-11-04T10:58:35.216Z,11.70
2018-11-04T11:01:06.734Z,11.80
2018-11-04T11:03:35.140Z,11.90
2018-11-04T11:06:02.176Z,12.00
2018-11-04T11:08:29.221Z,12.10
2018-11-04T11:10:59.993Z,12.10
2018-11-04T11:13:27.158Z,12.20
2018-11-04T11:15:54.189Z,12.20
2018-11-04T11:18:21.175Z,12.40
2018-11-04T11:20:48.232Z,12.40
2018-11-04T11:23:15.335Z,12.60
2018-11-04T11:25:42.321Z,12.60
2018-11-04T11:28:09.416Z,12.70
2018-11-04T11:30:36.524Z,12.80
2018-11-04T11:33:03.933Z,12.90
2018-11-04T11:35:30.973Z,13.00
2018-11-04T11:37:58.641Z,13.10
2018-11-04T11:40:25.541Z,13.20
2018-11-04T11:42:52.805Z,13.30
2018-11-04T11:45:20.431Z,13.40
2018-11-04T11:47:47.488Z,13.50
2018-11-04T11:50:14.713Z,13.60
2018-11-04T11:52:43.540Z,13.60
2018-11-04T11:55:10.533Z,13.70
2018-11-04T11:57:37.721Z,13.80
2018-11-04T12:00:05.730Z,13.70
2018-11-04T12:02:32.783Z,13.60
2018-11-04T12:04:59.819Z,13.60
2018-11-04T12:07:30.148Z,13.50
2018-11-04T12:09:57.337Z,13.50
2018-11-04T12:12:24.900Z,13.50
2018-11-04T12:14:51.981Z,13.40
2018-11-04T12:17:18.991Z,13.50
2018-11-04T12:19:46.220Z,13.60
2018-11-04T12:22:13.349Z,13.60
2018-11-04T12:24:42.241Z,13.70
2018-11-04T12:27:09.430Z,13.60
2018-11-04T12:29:36.648Z,13.60
2018-11-04T12:32:03.924Z,13.70
2018-11-04T12:37:05.603Z,13.70
2018-11-04T12:39:32.742Z,13.70
2018-11-04T12:41:59.869Z,13.70
2018-11-04T12:44:30.321Z,13.70
2018-11-04T12:46:57.342Z,13.70
2018-11-04T12:49:24.446Z,13.80
2018-11-04T12:51:51.531Z,13.80
2018-11-04T12:54:18.555Z,13.80
2018-11-04T12:56:45.595Z,13.80
2018-11-04T12:59:12.661Z,13.80
2018-11-04T13:01:39.749Z,13.80
2018-11-04T13:06:40.213Z,13.90
2018-11-04T13:09:07.605Z,13.80
2018-11-04T13:11:38.659Z,13.80
2018-11-04T13:14:05.650Z,13.70
2018-11-04T13:16:33.076Z,13.60
2018-11-04T13:19:00.152Z,13.60
2018-11-04T13:21:27.274Z,13.60
2018-11-04T13:25:29.600Z,13.60
2018-11-04T13:27:56.672Z,13.60
2018-11-04T13:30:23.681Z,13.70
2018-11-04T13:32:50.787Z,13.70
2018-11-04T13:35:17.796Z,13.70
2018-11-04T13:40:17.702Z,13.70
2018-11-04T13:42:44.792Z,13.60
2018-11-04T13:45:18.199Z,13.50
2018-11-04T13:48:06.302Z,13.50
2018-11-04T13:50:33.341Z,13.50
2018-11-04T13:53:00.427Z,13.50
2018-11-04T13:55:27.409Z,13.40
2018-11-04T13:57:54.399Z,13.40
2018-11-04T14:00:22.557Z,13.40
2018-11-04T14:02:49.657Z,13.40
2018-11-04T14:05:16.812Z,13.40
2018-11-04T14:08:53.866Z,13.30
2018-11-04T14:11:20.961Z,13.30
2018-11-04T14:13:47.949Z,13.30
2018-11-04T14:18:48.223Z,13.20
2018-11-04T14:21:15.373Z,13.20
2018-11-04T14:23:42.406Z,13.20
2018-11-04T14:26:09.462Z,13.20
2018-11-04T14:28:36.563Z,13.20
2018-11-04T14:31:03.659Z,13.20
2018-11-04T14:33:30.674Z,13.20
2018-11-04T14:35:57.860Z,13.20
2018-11-04T14:38:25.405Z,13.10
2018-11-04T14:40:52.433Z,13.10
2018-11-04T14:43:19.558Z,13.00
2018-11-04T14:45:46.737Z,13.00
2018-11-04T14:48:13.717Z,12.90
2018-11-04T14:50:40.744Z,12.90
2018-11-04T14:53:07.732Z,12.80
2018-11-04T14:55:34.848Z,12.70
2018-11-04T14:58:01.906Z,12.60
2018-11-04T15:00:33.493Z,12.60
2018-11-04T15:03:01.050Z,12.50
2018-11-04T15:05:28.152Z,12.50
2018-11-04T15:07:55.214Z,12.50
2018-11-04T15:10:22.232Z,12.50
2018-11-04T15:12:49.263Z,12.50
2018-11-04T15:15:17.026Z,12.50
2018-11-04T15:17:44.018Z,12.40
2018-11-04T15:20:11.707Z,12.40
2018-11-04T15:22:40.788Z,12.40
2018-11-04T15:25:07.922Z,12.30
2018-11-04T15:27:35.045Z,12.30
2018-11-04T15:30:02.075Z,12.30
2018-11-04T15:32:29.096Z,12.20
2018-11-04T15:34:56.118Z,12.20
2018-11-04T15:37:23.218Z,12.20
2018-11-04T15:39:50.388Z,12.10
2018-11-04T15:42:18.809Z,12.10
2018-11-04T15:44:45.866Z,12.10
2018-11-04T15:47:12.956Z,12.00
2018-11-04T15:49:40.537Z,12.00
2018-11-04T15:52:07.761Z,12.00
2018-11-04T15:54:34.785Z,11.90
2018-11-04T15:57:06.472Z,11.90
2018-11-04T15:59:33.500Z,11.90
2018-11-04T16:02:00.558Z,11.90
2018-11-04T16:04:27.635Z,11.80
2018-11-04T16:06:54.656Z,11.80
2018-11-04T16:09:22.750Z,11.70
2018-11-04T16:11:50.124Z,11.70
2018-11-04T16:14:17.149Z,11.70
2018-11-04T16:16:44.936Z,11.60
2018-11-04T16:19:11.988Z,11.60
2018-11-04T16:21:39.117Z,11.50
2018-11-04T16:24:06.134Z,11.50
2018-11-04T16:26:33.177Z,11.50
2018-11-04T16:29:03.481Z,11.50
2018-11-04T16:31:32.031Z,11.50
2018-11-04T16:33:59.039Z,11.50
2018-11-04T16:36:28.984Z,11.50
2018-11-04T16:38:56.031Z,11.50
2018-11-04T16:41:23.212Z,11.50
2018-11-04T16:43:50.497Z,11.50
2018-11-04T16:46:18.978Z,11.40
2018-11-04T16:48:58.909Z,11.40
2018-11-04T16:51:25.917Z,11.40
2018-11-04T16:54:04.845Z,11.40
2018-11-04T16:56:32.529Z,11.30
2018-11-04T16:58:59.671Z,11.30
2018-11-04T17:01:27.001Z,11.20
2018-11-04T17:03:54.125Z,11.20
2018-11-04T17:06:22.088Z,11.20
2018-11-04T17:08:49.103Z,11.20
2018-11-04T17:11:17.219Z,11.10
2018-11-04T17:13:50.335Z,11.10
2018-11-04T17:16:17.378Z,11.10
2018-11-04T17:18:44.661Z,11.10
2018-11-04T17:21:18.018Z,11.10
2018-11-04T17:23:45.124Z,11.00
2018-11-04T17:26:12.277Z,11.00
2018-11-04T17:28:45.620Z,11.00
2018-11-04T17:31:12.686Z,11.00
2018-11-04T17:33:39.896Z,11.00
2018-11-04T17:36:13.350Z,11.00
2018-11-04T17:38:40.365Z,11.00
2018-11-04T17:41:07.405Z,11.00
2018-11-04T17:43:42.024Z,10.40
2018-11-04T17:46:09.224Z,10.90
2018-11-04T17:48:36.698Z,10.80
2018-11-04T17:51:10.908Z,10.80
2018-11-04T17:53:38.041Z,10.70
2018-11-04T17:56:05.337Z,10.60
2018-11-04T17:58:36.825Z,10.50
2018-11-04T18:01:03.953Z,10.40
2018-11-04T18:03:31.085Z,10.30
2018-11-04T18:06:05.456Z,10.20
2018-11-04T18:08:32.701Z,10.20
2018-11-04T18:10:59.841Z,10.20
2018-11-04T18:16:22.509Z,10.20
2018-11-04T18:18:49.570Z,10.20
2018-11-04T18:21:16.565Z,10.10
2018-11-04T18:23:50.232Z,10.10
2018-11-04T18:26:17.517Z,10.10
2018-11-04T18:28:44.428Z,10.00
2018-11-04T18:31:18.103Z,10.00
2018-11-04T18:33:45.276Z,10.00
2018-11-04T18:36:12.570Z,10.00
2018-11-04T18:38:45.695Z,9.90
2018-11-04T18:41:12.875Z,9.90
2018-11-04T18:43:40.627Z,9.80
2018-11-04T18:46:14.543Z,9.80
2018-11-04T18:48:42.569Z,9.80
2018-11-04T18:51:10.422Z,9.70
2018-11-04T18:56:31.284Z,9.70
2018-11-04T18:58:59.088Z,9.70
2018-11-04T19:01:26.790Z,9.80
2018-11-04T19:03:58.745Z,9.80
2018-11-04T19:06:26.529Z,9.80
2018-11-04T19:08:54.415Z,9.80
2018-11-04T19:11:27.062Z,9.90
2018-11-04T19:13:54.785Z,9.90
2018-11-04T19:16:22.594Z,9.90
2018-11-04T19:22:03.907Z,9.80
2018-11-04T19:24:32.475Z,9.70
2018-11-04T19:27:03.636Z,9.70
2018-11-04T19:29:41.029Z,9.60
2018-11-04T19:32:09.253Z,9.60
2018-11-04T19:34:39.524Z,9.60
2018-11-04T19:37:08.407Z,9.50
2018-11-04T19:39:43.403Z,9.50
2018-11-04T19:42:13.728Z,9.50
2018-11-04T19:44:49.102Z,9.50
2018-11-04T19:47:17.527Z,9.50
2018-11-04T19:49:46.086Z,9.50
2018-11-04T19:52:14.415Z,9.50
2018-11-04T19:54:42.777Z,9.40
2018-11-04T19:57:11.537Z,9.40
2018-11-04T19:59:40.001Z,9.40
2018-11-04T20:02:08.415Z,9.40
2018-11-04T20:04:36.721Z,9.40
2018-11-04T20:07:11.464Z,9.30
2018-11-04T20:09:39.785Z,9.20
2018-11-04T20:14:51.126Z,9.10
2018-11-04T20:17:19.343Z,9.00
2018-11-04T20:20:23.755Z,8.90
2018-11-04T20:22:52.070Z,8.80
2018-11-04T20:25:32.667Z,8.70
2018-11-04T20:28:00.920Z,8.60
2018-11-04T20:30:28.973Z,8.50
2018-11-04T20:33:04.201Z,8.50
2018-11-04T20:38:10.194Z,8.40
2018-11-04T20:40:43.489Z,8.40
2018-11-04T20:43:12.132Z,8.40
2018-11-04T20:45:41.400Z,8.30
2018-11-04T20:49:14.703Z,8.20
2018-11-04T20:51:42.764Z,8.10
2018-11-04T20:54:11.036Z,8.00
2018-11-04T20:56:44.207Z,7.80
2018-11-04T20:59:12.135Z,7.80
2018-11-04T21:01:42.321Z,7.70
2018-11-04T21:04:10.257Z,7.50
2018-11-04T21:09:11.903Z,7.50
2018-11-04T21:14:13.693Z,7.50
2018-11-04T21:19:15.688Z,7.40
2018-11-04T21:21:43.484Z,7.40
2018-11-04T21:24:11.409Z,7.30
2018-11-04T21:26:39.211Z,7.30
2018-11-04T21:29:07.727Z,7.30
2018-11-04T21:31:35.615Z,7.30
2018-11-04T21:34:08.049Z,7.30
2018-11-04T21:36:36.020Z,7.30
2018-11-04T21:39:12.475Z,7.30
2018-11-04T21:41:40.278Z,7.20
2018-11-04T21:44:18.478Z,7.30
2018-11-04T21:46:47.029Z,7.20
2018-11-04T21:49:22.189Z,7.20
2018-11-04T21:51:50.942Z,7.20
2018-11-04T21:54:29.670Z,7.20
2018-11-04T21:56:57.510Z,7.30
2018-11-04T21:59:33.124Z,7.30
2018-11-04T22:02:00.898Z,7.30
2018-11-04T22:04:37.373Z,7.20
2018-11-04T22:07:06.806Z,7.20
2018-11-04T22:09:43.287Z,7.20
2018-11-04T22:12:11.150Z,7.20
2018-11-04T22:14:48.196Z,7.20
2018-11-04T22:17:15.947Z,7.20
2018-11-04T22:19:52.727Z,7.20
2018-11-04T22:22:20.552Z,7.20
2018-11-04T22:24:59.488Z,7.20
2018-11-04T22:27:27.486Z,7.10
2018-11-04T22:30:08.774Z,7.00
2018-11-04T22:32:36.907Z,7.00
2018-11-04T22:35:10.160Z,7.00
2018-11-04T22:37:38.348Z,7.00
2018-11-04T22:40:13.069Z,7.10
2018-11-04T22:42:41.786Z,7.10
2018-11-04T22:45:18.029Z,7.10
2018-11-04T22:47:45.775Z,7.10
2018-11-04T22:50:24.745Z,7.10
2018-11-04T22:52:52.476Z,7.20
2018-11-04T22:55:28.299Z,7.20
2018-11-04T22:58:01.608Z,7.20
2018-11-04T23:00:39.273Z,7.10
2018-11-04T23:03:07.223Z,7.10
2018-11-04T23:05:38.828Z,7.10
2018-11-04T23:08:07.244Z,7.00
2018-11-04T23:10:44.798Z,7.00
2018-11-04T23:13:12.533Z,7.00
2018-11-04T23:15:48.669Z,7.00
2018-11-04T23:18:16.433Z,6.90
2018-11-04T23:20:44.212Z,6.90
2018-11-04T23:23:12.053Z,6.90
2018-11-04T23:25:39.778Z,6.90
2018-11-04T23:28:07.546Z,7.00
2018-11-04T23:30:40.756Z,7.00
2018-11-04T23:33:08.511Z,6.90
2018-11-04T23:35:45.395Z,6.90
2018-11-04T23:38:13.273Z,6.80
2018-11-04T23:40:50.158Z,6.80
2018-11-04T23:43:18.141Z,6.80
2018-11-04T23:45:55.890Z,6.80
2018-11-04T23:48:23.843Z,6.80
2018-11-04T23:51:00.383Z,6.80
2018-11-04T23:53:28.464Z,6.80
2018-11-04T23:56:06.187Z,6.80
2018-11-04T23:58:34.245Z,6.80
